sensor_id;sensor_type;location;lat;lon;timestamp;temperature;humidity
42715;DHT22;28351;51.480;5.706;2022-08-03T00:01:41;20.40;99.90
42715;DHT22;28351;51.480;5.706;2022-08-03T00:04:08;20.40;99.90
42715;DHT22;28351;51.480;5.706;2022-08-03T00:06:34;20.40;99.90
42715;DHT22;28351;51.480;5.706;2022-08-03T00:08:59;20.30;99.90
42715;DHT22;28351;51.480;5.706;2022-08-03T00:11:25;20.30;99.90
42715;DHT22;28351;51.480;5.706;2022-08-03T00:13:51;20.20;99.90
42715;DHT22;28351;51.480;5.706;2022-08-03T00:16:17;20.10;99.90
42715;DHT22;28351;51.480;5.706;2022-08-03T00:18:43;20.10;99.90
42715;DHT22;28351;51.480;5.706;2022-08-03T00:21:09;20.10;99.90
42715;DHT22;28351;51.480;5.706;2022-08-03T00:23:34;20.10;99.90
42715;DHT22;28351;51.480;5.706;2022-08-03T00:26:01;20.10;99.90
42715;DHT22;28351;51.480;5.706;2022-08-03T00:28:26;20.10;99.90
42715;DHT22;28351;51.480;5.706;2022-08-03T00:30:52;20.10;99.90
42715;DHT22;28351;51.480;5.706;2022-08-03T00:33:18;20.10;99.90
42715;DHT22;28351;51.480;5.706;2022-08-03T00:35:46;20.10;99.90
42715;DHT22;28351;51.480;5.706;2022-08-03T00:38:12;20.00;99.90
42715;DHT22;28351;51.480;5.706;2022-08-03T00:40:38;20.00;99.90
42715;DHT22;28351;51.480;5.706;2022-08-03T00:43:08;20.00;99.90
42715;DHT22;28351;51.480;5.706;2022-08-03T00:45:39;19.90;99.90
42715;DHT22;28351;51.480;5.706;2022-08-03T00:48:08;19.90;99.90
42715;DHT22;28351;51.480;5.706;2022-08-03T00:50:35;19.80;99.90
42715;DHT22;28351;51.480;5.706;2022-08-03T00:53:04;19.80;99.90
42715;DHT22;28351;51.480;5.706;2022-08-03T00:55:30;19.70;99.90
42715;DHT22;28351;51.480;5.706;2022-08-03T00:57:56;19.60;99.90
42715;DHT22;28351;51.480;5.706;2022-08-03T01:00:25;19.60;99.90
42715;DHT22;28351;51.480;5.706;2022-08-03T01:02:52;19.60;99.90
42715;DHT22;28351;51.480;5.706;2022-08-03T01:05:19;19.60;99.90
42715;DHT22;28351;51.480;5.706;2022-08-03T01:18:57;19.60;99.90
42715;DHT22;28351;51.480;5.706;2022-08-03T01:21:56;19.50;99.90
42715;DHT22;28351;51.480;5.706;2022-08-03T01:27:07;19.50;99.90
42715;DHT22;28351;51.480;5.706;2022-08-03T01:30:01;19.50;99.90
42715;DHT22;28351;51.480;5.706;2022-08-03T01:35:26;19.40;99.90
42715;DHT22;28351;51.480;5.706;2022-08-03T01:37:57;19.40;99.90
42715;DHT22;28351;51.480;5.706;2022-08-03T01:40:26;19.30;99.90
42715;DHT22;28351;51.480;5.706;2022-08-03T01:42:53;19.20;99.90
42715;DHT22;28351;51.480;5.706;2022-08-03T01:45:24;19.30;99.90
42715;DHT22;28351;51.480;5.706;2022-08-03T01:47:52;19.30;99.90
42715;DHT22;28351;51.480;5.706;2022-08-03T01:50:22;19.20;99.90
42715;DHT22;28351;51.480;5.706;2022-08-03T01:52:49;19.20;99.90
42715;DHT22;28351;51.480;5.706;2022-08-03T01:55:17;19.20;99.90
42715;DHT22;28351;51.480;5.706;2022-08-03T01:57:44;19.10;99.90
42715;DHT22;28351;51.480;5.706;2022-08-03T02:00:13;19.10;99.90
42715;DHT22;28351;51.480;5.706;2022-08-03T02:02:39;19.00;99.90
42715;DHT22;28351;51.480;5.706;2022-08-03T02:05:08;19.10;99.90
42715;DHT22;28351;51.480;5.706;2022-08-03T02:07:35;19.10;99.90
42715;DHT22;28351;51.480;5.706;2022-08-03T02:10:03;19.10;99.90
42715;DHT22;28351;51.480;5.706;2022-08-03T02:12:32;19.10;99.90
42715;DHT22;28351;51.480;5.706;2022-08-03T02:14:59;19.10;99.90
42715;DHT22;28351;51.480;5.706;2022-08-03T02:17:29;19.00;99.90
42715;DHT22;28351;51.480;5.706;2022-08-03T02:19:57;19.00;99.90
42715;DHT22;28351;51.480;5.706;2022-08-03T02:22:24;18.90;99.90
42715;DHT22;28351;51.480;5.706;2022-08-03T02:24:51;18.90;99.90
42715;DHT22;28351;51.480;5.706;2022-08-03T02:27:20;18.90;99.90
42715;DHT22;28351;51.480;5.706;2022-08-03T02:29:48;18.90;99.90
42715;DHT22;28351;51.480;5.706;2022-08-03T02:32:20;18.80;99.90
42715;DHT22;28351;51.480;5.706;2022-08-03T02:34:50;18.80;99.90
42715;DHT22;28351;51.480;5.706;2022-08-03T02:37:22;18.90;99.90
42715;DHT22;28351;51.480;5.706;2022-08-03T02:39:51;18.80;99.90
42715;DHT22;28351;51.480;5.706;2022-08-03T02:42:20;18.70;99.90
42715;DHT22;28351;51.480;5.706;2022-08-03T02:44:46;18.80;99.90
42715;DHT22;28351;51.480;5.706;2022-08-03T02:47:13;18.70;99.90
42715;DHT22;28351;51.480;5.706;2022-08-03T02:49:40;18.70;99.90
42715;DHT22;28351;51.480;5.706;2022-08-03T02:52:11;18.70;99.90
42715;DHT22;28351;51.480;5.706;2022-08-03T02:54:38;18.70;99.90
42715;DHT22;28351;51.480;5.706;2022-08-03T02:57:06;18.70;99.90
42715;DHT22;28351;51.480;5.706;2022-08-03T02:59:34;18.60;99.90
42715;DHT22;28351;51.480;5.706;2022-08-03T03:02:01;18.60;99.90
42715;DHT22;28351;51.480;5.706;2022-08-03T03:04:28;18.60;99.90
42715;DHT22;28351;51.480;5.706;2022-08-03T03:06:56;18.60;99.90
42715;DHT22;28351;51.480;5.706;2022-08-03T03:09:22;18.60;99.90
42715;DHT22;28351;51.480;5.706;2022-08-03T03:11:50;18.60;99.90
42715;DHT22;28351;51.480;5.706;2022-08-03T03:14:16;18.50;99.90
42715;DHT22;28351;51.480;5.706;2022-08-03T03:16:44;18.60;99.90
42715;DHT22;28351;51.480;5.706;2022-08-03T03:19:13;18.60;99.90
42715;DHT22;28351;51.480;5.706;2022-08-03T03:21:39;18.50;99.90
42715;DHT22;28351;51.480;5.706;2022-08-03T03:24:07;18.50;99.90
42715;DHT22;28351;51.480;5.706;2022-08-03T03:26:34;18.50;99.90
42715;DHT22;28351;51.480;5.706;2022-08-03T03:29:01;18.50;99.90
42715;DHT22;28351;51.480;5.706;2022-08-03T03:31:27;18.50;99.90
42715;DHT22;28351;51.480;5.706;2022-08-03T03:33:53;18.50;99.90
42715;DHT22;28351;51.480;5.706;2022-08-03T03:36:19;18.40;99.90
42715;DHT22;28351;51.480;5.706;2022-08-03T03:38:44;18.40;99.90
42715;DHT22;28351;51.480;5.706;2022-08-03T03:41:10;18.40;99.90
42715;DHT22;28351;51.480;5.706;2022-08-03T03:43:36;18.40;99.90
42715;DHT22;28351;51.480;5.706;2022-08-03T03:46:02;18.30;99.90
42715;DHT22;28351;51.480;5.706;2022-08-03T03:48:28;18.30;99.90
42715;DHT22;28351;51.480;5.706;2022-08-03T03:50:53;18.40;99.90
42715;DHT22;28351;51.480;5.706;2022-08-03T03:53:21;18.30;99.90
42715;DHT22;28351;51.480;5.706;2022-08-03T03:55:47;18.30;99.90
42715;DHT22;28351;51.480;5.706;2022-08-03T03:58:13;18.30;99.90
42715;DHT22;28351;51.480;5.706;2022-08-03T04:00:38;18.30;99.90
42715;DHT22;28351;51.480;5.706;2022-08-03T04:03:04;18.30;99.90
42715;DHT22;28351;51.480;5.706;2022-08-03T04:05:30;18.30;99.90
42715;DHT22;28351;51.480;5.706;2022-08-03T04:08:15;18.20;99.90
42715;DHT22;28351;51.480;5.706;2022-08-03T04:11:21;18.20;99.90
42715;DHT22;28351;51.480;5.706;2022-08-03T04:14:02;18.20;99.90
42715;DHT22;28351;51.480;5.706;2022-08-03T04:16:32;18.20;99.90
42715;DHT22;28351;51.480;5.706;2022-08-03T04:19:02;18.20;99.90
42715;DHT22;28351;51.480;5.706;2022-08-03T04:21:30;18.20;99.90
42715;DHT22;28351;51.480;5.706;2022-08-03T04:23:59;18.20;99.90
42715;DHT22;28351;51.480;5.706;2022-08-03T04:26:29;18.20;99.90
42715;DHT22;28351;51.480;5.706;2022-08-03T04:28:58;18.20;99.90
42715;DHT22;28351;51.480;5.706;2022-08-03T04:31:24;18.20;99.90
42715;DHT22;28351;51.480;5.706;2022-08-03T04:33:52;18.30;99.90
42715;DHT22;28351;51.480;5.706;2022-08-03T04:36:25;18.30;99.90
42715;DHT22;28351;51.480;5.706;2022-08-03T04:39:15;18.30;99.90
42715;DHT22;28351;51.480;5.706;2022-08-03T04:41:43;18.30;99.90
42715;DHT22;28351;51.480;5.706;2022-08-03T04:44:10;18.30;99.90
42715;DHT22;28351;51.480;5.706;2022-08-03T04:46:38;18.30;99.90
42715;DHT22;28351;51.480;5.706;2022-08-03T04:49:05;18.30;99.90
42715;DHT22;28351;51.480;5.706;2022-08-03T04:51:32;18.40;99.90
42715;DHT22;28351;51.480;5.706;2022-08-03T04:54:03;18.40;99.90
42715;DHT22;28351;51.480;5.706;2022-08-03T04:56:28;18.40;99.90
42715;DHT22;28351;51.480;5.706;2022-08-03T04:58:54;18.40;99.90
42715;DHT22;28351;51.480;5.706;2022-08-03T05:01:19;18.50;99.90
42715;DHT22;28351;51.480;5.706;2022-08-03T05:03:46;18.50;99.90
42715;DHT22;28351;51.480;5.706;2022-08-03T05:06:12;18.50;99.90
42715;DHT22;28351;51.480;5.706;2022-08-03T05:08:38;18.60;99.90
42715;DHT22;28351;51.480;5.706;2022-08-03T05:11:03;18.60;99.90
42715;DHT22;28351;51.480;5.706;2022-08-03T05:13:29;18.70;99.90
42715;DHT22;28351;51.480;5.706;2022-08-03T05:15:55;18.80;99.90
42715;DHT22;28351;51.480;5.706;2022-08-03T05:18:21;18.80;99.90
42715;DHT22;28351;51.480;5.706;2022-08-03T05:20:46;18.90;99.90
42715;DHT22;28351;51.480;5.706;2022-08-03T05:23:12;19.10;99.90
42715;DHT22;28351;51.480;5.706;2022-08-03T05:25:38;19.10;99.90
42715;DHT22;28351;51.480;5.706;2022-08-03T05:28:03;19.20;99.90
42715;DHT22;28351;51.480;5.706;2022-08-03T05:30:29;19.30;99.90
42715;DHT22;28351;51.480;5.706;2022-08-03T05:32:55;19.50;99.90
42715;DHT22;28351;51.480;5.706;2022-08-03T05:35:20;19.60;99.90
42715;DHT22;28351;51.480;5.706;2022-08-03T05:37:46;19.70;99.90
42715;DHT22;28351;51.480;5.706;2022-08-03T05:40:12;19.90;99.90
42715;DHT22;28351;51.480;5.706;2022-08-03T05:42:38;20.00;99.90
42715;DHT22;28351;51.480;5.706;2022-08-03T05:45:04;20.20;99.90
42715;DHT22;28351;51.480;5.706;2022-08-03T05:47:39;20.20;99.90
42715;DHT22;28351;51.480;5.706;2022-08-03T05:50:05;20.30;99.90
42715;DHT22;28351;51.480;5.706;2022-08-03T05:52:31;20.40;99.90
42715;DHT22;28351;51.480;5.706;2022-08-03T05:54:56;20.40;99.90
42715;DHT22;28351;51.480;5.706;2022-08-03T05:57:22;20.50;99.90
42715;DHT22;28351;51.480;5.706;2022-08-03T05:59:47;20.60;99.90
42715;DHT22;28351;51.480;5.706;2022-08-03T06:02:13;20.60;99.90
42715;DHT22;28351;51.480;5.706;2022-08-03T06:04:39;20.70;99.90
42715;DHT22;28351;51.480;5.706;2022-08-03T06:07:04;20.70;99.90
42715;DHT22;28351;51.480;5.706;2022-08-03T06:09:30;20.80;99.90
42715;DHT22;28351;51.480;5.706;2022-08-03T06:11:56;20.90;99.90
42715;DHT22;28351;51.480;5.706;2022-08-03T06:14:22;21.00;99.90
42715;DHT22;28351;51.480;5.706;2022-08-03T06:16:47;21.10;99.90
42715;DHT22;28351;51.480;5.706;2022-08-03T06:19:13;21.10;99.90
42715;DHT22;28351;51.480;5.706;2022-08-03T06:21:39;21.20;99.90
42715;DHT22;28351;51.480;5.706;2022-08-03T06:24:06;21.30;99.90
42715;DHT22;28351;51.480;5.706;2022-08-03T06:26:32;21.40;99.90
42715;DHT22;28351;51.480;5.706;2022-08-03T06:28:57;21.50;99.90
42715;DHT22;28351;51.480;5.706;2022-08-03T06:31:29;21.50;99.90
42715;DHT22;28351;51.480;5.706;2022-08-03T06:33:54;21.60;99.90
42715;DHT22;28351;51.480;5.706;2022-08-03T06:36:20;21.60;99.90
42715;DHT22;28351;51.480;5.706;2022-08-03T06:38:45;21.70;99.90
42715;DHT22;28351;51.480;5.706;2022-08-03T06:41:11;21.80;99.90
42715;DHT22;28351;51.480;5.706;2022-08-03T06:43:37;21.80;99.90
42715;DHT22;28351;51.480;5.706;2022-08-03T06:46:03;21.90;99.90
42715;DHT22;28351;51.480;5.706;2022-08-03T06:48:30;22.00;99.90
42715;DHT22;28351;51.480;5.706;2022-08-03T06:50:56;22.10;99.90
42715;DHT22;28351;51.480;5.706;2022-08-03T06:53:21;22.30;99.90
42715;DHT22;28351;51.480;5.706;2022-08-03T06:55:47;22.40;99.90
42715;DHT22;28351;51.480;5.706;2022-08-03T06:58:12;22.50;99.90
42715;DHT22;28351;51.480;5.706;2022-08-03T07:00:38;22.50;99.90
42715;DHT22;28351;51.480;5.706;2022-08-03T07:03:03;22.70;99.90
42715;DHT22;28351;51.480;5.706;2022-08-03T07:05:29;22.80;99.90
42715;DHT22;28351;51.480;5.706;2022-08-03T07:07:57;22.80;99.90
42715;DHT22;28351;51.480;5.706;2022-08-03T07:10:26;23.00;99.90
42715;DHT22;28351;51.480;5.706;2022-08-03T07:12:52;23.10;99.90
42715;DHT22;28351;51.480;5.706;2022-08-03T07:15:18;23.20;99.90
42715;DHT22;28351;51.480;5.706;2022-08-03T07:17:44;23.30;99.90
42715;DHT22;28351;51.480;5.706;2022-08-03T07:20:10;23.30;99.90
42715;DHT22;28351;51.480;5.706;2022-08-03T07:22:40;23.40;99.90
42715;DHT22;28351;51.480;5.706;2022-08-03T07:25:06;23.40;99.90
42715;DHT22;28351;51.480;5.706;2022-08-03T07:27:32;23.40;99.90
42715;DHT22;28351;51.480;5.706;2022-08-03T07:29:58;23.50;99.90
42715;DHT22;28351;51.480;5.706;2022-08-03T07:32:24;23.60;99.90
42715;DHT22;28351;51.480;5.706;2022-08-03T07:34:50;23.70;99.90
42715;DHT22;28351;51.480;5.706;2022-08-03T07:37:15;23.90;99.90
42715;DHT22;28351;51.480;5.706;2022-08-03T07:39:41;24.00;99.90
42715;DHT22;28351;51.480;5.706;2022-08-03T07:42:07;24.00;99.90
42715;DHT22;28351;51.480;5.706;2022-08-03T07:44:35;24.10;99.90
42715;DHT22;28351;51.480;5.706;2022-08-03T07:47:01;24.20;99.90
42715;DHT22;28351;51.480;5.706;2022-08-03T07:49:26;24.30;99.90
42715;DHT22;28351;51.480;5.706;2022-08-03T07:51:52;24.40;99.90
42715;DHT22;28351;51.480;5.706;2022-08-03T07:54:36;24.30;99.90
42715;DHT22;28351;51.480;5.706;2022-08-03T07:57:01;24.20;99.90
42715;DHT22;28351;51.480;5.706;2022-08-03T07:59:27;24.30;99.90
42715;DHT22;28351;51.480;5.706;2022-08-03T08:01:52;24.20;99.90
42715;DHT22;28351;51.480;5.706;2022-08-03T08:04:18;24.20;99.90
42715;DHT22;28351;51.480;5.706;2022-08-03T08:06:44;24.40;99.90
42715;DHT22;28351;51.480;5.706;2022-08-03T08:09:09;24.50;99.90
42715;DHT22;28351;51.480;5.706;2022-08-03T08:11:36;24.40;99.90
42715;DHT22;28351;51.480;5.706;2022-08-03T08:14:01;24.50;99.90
42715;DHT22;28351;51.480;5.706;2022-08-03T08:16:28;24.60;99.90
42715;DHT22;28351;51.480;5.706;2022-08-03T08:18:54;24.80;99.90
42715;DHT22;28351;51.480;5.706;2022-08-03T08:21:19;24.90;99.90
42715;DHT22;28351;51.480;5.706;2022-08-03T08:23:45;24.90;99.90
42715;DHT22;28351;51.480;5.706;2022-08-03T08:26:11;24.80;99.90
42715;DHT22;28351;51.480;5.706;2022-08-03T08:28:36;24.90;99.90
42715;DHT22;28351;51.480;5.706;2022-08-03T08:31:02;24.80;99.90
42715;DHT22;28351;51.480;5.706;2022-08-03T08:33:28;24.70;99.90
42715;DHT22;28351;51.480;5.706;2022-08-03T08:35:53;24.80;99.90
42715;DHT22;28351;51.480;5.706;2022-08-03T08:38:19;24.90;99.90
42715;DHT22;28351;51.480;5.706;2022-08-03T08:40:45;25.00;99.90
42715;DHT22;28351;51.480;5.706;2022-08-03T08:43:10;25.00;99.90
42715;DHT22;28351;51.480;5.706;2022-08-03T08:45:36;25.10;99.90
42715;DHT22;28351;51.480;5.706;2022-08-03T08:48:03;25.20;99.90
42715;DHT22;28351;51.480;5.706;2022-08-03T08:50:29;25.40;99.90
42715;DHT22;28351;51.480;5.706;2022-08-03T08:52:59;25.40;99.90
42715;DHT22;28351;51.480;5.706;2022-08-03T08:55:26;25.60;99.90
42715;DHT22;28351;51.480;5.706;2022-08-03T08:57:57;25.80;99.90
42715;DHT22;28351;51.480;5.706;2022-08-03T09:00:25;25.80;99.90
42715;DHT22;28351;51.480;5.706;2022-08-03T09:02:50;25.90;99.90
42715;DHT22;28351;51.480;5.706;2022-08-03T09:05:18;26.00;99.90
42715;DHT22;28351;51.480;5.706;2022-08-03T09:07:46;26.00;99.90
42715;DHT22;28351;51.480;5.706;2022-08-03T09:10:15;26.10;99.90
42715;DHT22;28351;51.480;5.706;2022-08-03T09:12:48;26.20;99.90
42715;DHT22;28351;51.480;5.706;2022-08-03T09:15:28;26.50;99.90
42715;DHT22;28351;51.480;5.706;2022-08-03T09:17:58;26.60;99.90
42715;DHT22;28351;51.480;5.706;2022-08-03T09:20:26;26.70;99.90
42715;DHT22;28351;51.480;5.706;2022-08-03T09:25:29;26.80;99.90
42715;DHT22;28351;51.480;5.706;2022-08-03T09:30:36;27.10;99.90
42715;DHT22;28351;51.480;5.706;2022-08-03T09:33:04;27.10;99.90
42715;DHT22;28351;51.480;5.706;2022-08-03T09:35:31;27.10;99.90
42715;DHT22;28351;51.480;5.706;2022-08-03T09:38:20;27.30;99.90
42715;DHT22;28351;51.480;5.706;2022-08-03T09:40:48;27.20;99.90
42715;DHT22;28351;51.480;5.706;2022-08-03T09:43:15;27.40;99.90
42715;DHT22;28351;51.480;5.706;2022-08-03T09:45:41;27.60;99.90
42715;DHT22;28351;51.480;5.706;2022-08-03T09:48:28;27.70;99.90
42715;DHT22;28351;51.480;5.706;2022-08-03T09:50:59;27.70;99.90
42715;DHT22;28351;51.480;5.706;2022-08-03T09:53:25;27.90;99.90
42715;DHT22;28351;51.480;5.706;2022-08-03T09:58:18;28.10;99.90
42715;DHT22;28351;51.480;5.706;2022-08-03T10:00:58;28.20;99.90
42715;DHT22;28351;51.480;5.706;2022-08-03T10:03:27;28.50;99.90
42715;DHT22;28351;51.480;5.706;2022-08-03T10:05:54;28.70;99.90
42715;DHT22;28351;51.480;5.706;2022-08-03T10:08:20;28.70;99.90
42715;DHT22;28351;51.480;5.706;2022-08-03T10:10:48;28.50;99.90
42715;DHT22;28351;51.480;5.706;2022-08-03T10:13:16;28.60;99.90
42715;DHT22;28351;51.480;5.706;2022-08-03T10:15:42;28.60;99.90
42715;DHT22;28351;51.480;5.706;2022-08-03T10:18:08;28.90;99.90
42715;DHT22;28351;51.480;5.706;2022-08-03T10:20:37;29.10;99.90
42715;DHT22;28351;51.480;5.706;2022-08-03T10:23:07;29.20;99.90
42715;DHT22;28351;51.480;5.706;2022-08-03T10:25:36;29.20;99.90
42715;DHT22;28351;51.480;5.706;2022-08-03T10:28:03;29.10;99.90
42715;DHT22;28351;51.480;5.706;2022-08-03T10:30:31;29.20;99.90
42715;DHT22;28351;51.480;5.706;2022-08-03T10:33:21;29.50;99.90
42715;DHT22;28351;51.480;5.706;2022-08-03T10:35:52;29.70;99.90
42715;DHT22;28351;51.480;5.706;2022-08-03T10:38:31;29.90;99.90
42715;DHT22;28351;51.480;5.706;2022-08-03T10:41:02;29.90;99.90
42715;DHT22;28351;51.480;5.706;2022-08-03T10:43:45;30.30;99.90
42715;DHT22;28351;51.480;5.706;2022-08-03T10:46:14;30.40;99.90
42715;DHT22;28351;51.480;5.706;2022-08-03T10:48:40;30.70;99.90
42715;DHT22;28351;51.480;5.706;2022-08-03T10:51:06;30.60;99.90
42715;DHT22;28351;51.480;5.706;2022-08-03T10:53:37;30.90;99.90
42715;DHT22;28351;51.480;5.706;2022-08-03T10:56:03;30.60;99.90
42715;DHT22;28351;51.480;5.706;2022-08-03T10:58:49;30.80;99.80
42715;DHT22;28351;51.480;5.706;2022-08-03T11:01:16;31.40;99.40
42715;DHT22;28351;51.480;5.706;2022-08-03T11:06:21;32.10;98.10
42715;DHT22;28351;51.480;5.706;2022-08-03T11:11:39;32.40;98.20
42715;DHT22;28351;51.480;5.706;2022-08-03T11:14:07;32.60;98.00
42715;DHT22;28351;51.480;5.706;2022-08-03T11:16:41;33.10;97.30
42715;DHT22;28351;51.480;5.706;2022-08-03T11:19:12;33.60;96.90
42715;DHT22;28351;51.480;5.706;2022-08-03T11:35:28;35.00;94.00
42715;DHT22;28351;51.480;5.706;2022-08-03T11:40:45;35.90;93.80
42715;DHT22;28351;51.480;5.706;2022-08-03T11:46:07;37.20;92.90
42715;DHT22;28351;51.480;5.706;2022-08-03T11:50:59;35.90;92.60
42715;DHT22;28351;51.480;5.706;2022-08-03T11:53:25;36.00;92.80
42715;DHT22;28351;51.480;5.706;2022-08-03T11:55:51;36.00;92.70
42715;DHT22;28351;51.480;5.706;2022-08-03T11:58:20;35.70;92.80
42715;DHT22;28351;51.480;5.706;2022-08-03T12:00:47;36.60;92.20
42715;DHT22;28351;51.480;5.706;2022-08-03T12:03:16;36.60;92.40
42715;DHT22;28351;51.480;5.706;2022-08-03T12:08:10;34.90;93.20
42715;DHT22;28351;51.480;5.706;2022-08-03T12:10:36;35.00;93.10
42715;DHT22;28351;51.480;5.706;2022-08-03T12:13:03;35.70;92.70
42715;DHT22;28351;51.480;5.706;2022-08-03T12:15:34;36.40;92.30
42715;DHT22;28351;51.480;5.706;2022-08-03T12:18:09;36.60;92.30
42715;DHT22;28351;51.480;5.706;2022-08-03T12:20:36;36.80;92.40
42715;DHT22;28351;51.480;5.706;2022-08-03T12:23:06;36.90;92.30
42715;DHT22;28351;51.480;5.706;2022-08-03T12:25:32;38.20;91.80
42715;DHT22;28351;51.480;5.706;2022-08-03T12:28:16;38.50;90.80
42715;DHT22;28351;51.480;5.706;2022-08-03T12:30:45;39.00;91.10
42715;DHT22;28351;51.480;5.706;2022-08-03T12:33:13;38.90;90.60
42715;DHT22;28351;51.480;5.706;2022-08-03T12:35:38;38.90;90.80
42715;DHT22;28351;51.480;5.706;2022-08-03T12:38:05;39.20;90.90
42715;DHT22;28351;51.480;5.706;2022-08-03T12:40:30;39.90;90.20
42715;DHT22;28351;51.480;5.706;2022-08-03T12:42:56;39.00;90.20
42715;DHT22;28351;51.480;5.706;2022-08-03T12:45:27;38.90;89.40
42715;DHT22;28351;51.480;5.706;2022-08-03T12:47:58;39.30;90.40
42715;DHT22;28351;51.480;5.706;2022-08-03T12:50:26;39.70;89.40
42715;DHT22;28351;51.480;5.706;2022-08-03T12:52:52;40.30;88.70
42715;DHT22;28351;51.480;5.706;2022-08-03T12:55:19;41.40;87.40
42715;DHT22;28351;51.480;5.706;2022-08-03T12:57:45;40.90;87.10
42715;DHT22;28351;51.480;5.706;2022-08-03T13:00:13;40.80;87.40
42715;DHT22;28351;51.480;5.706;2022-08-03T13:02:39;40.10;86.50
42715;DHT22;28351;51.480;5.706;2022-08-03T13:05:12;39.20;87.20
42715;DHT22;28351;51.480;5.706;2022-08-03T13:07:45;40.40;86.40
42715;DHT22;28351;51.480;5.706;2022-08-03T13:10:26;39.30;86.60
42715;DHT22;28351;51.480;5.706;2022-08-03T13:12:52;40.60;87.20
42715;DHT22;28351;51.480;5.706;2022-08-03T13:15:18;39.90;85.70
42715;DHT22;28351;51.480;5.706;2022-08-03T13:17:44;39.00;86.60
42715;DHT22;28351;51.480;5.706;2022-08-03T13:20:10;37.80;87.60
42715;DHT22;28351;51.480;5.706;2022-08-03T13:22:36;36.40;89.20
42715;DHT22;28351;51.480;5.706;2022-08-03T13:25:02;35.10;90.10
42715;DHT22;28351;51.480;5.706;2022-08-03T13:27:29;34.40;90.50
42715;DHT22;28351;51.480;5.706;2022-08-03T13:29:55;35.10;90.50
42715;DHT22;28351;51.480;5.706;2022-08-03T13:32:22;35.70;90.50
42715;DHT22;28351;51.480;5.706;2022-08-03T13:34:49;35.70;90.30
42715;DHT22;28351;51.480;5.706;2022-08-03T13:37:14;36.70;90.80
42715;DHT22;28351;51.480;5.706;2022-08-03T13:39:41;38.90;88.60
42715;DHT22;28351;51.480;5.706;2022-08-03T13:42:09;40.10;87.30
42715;DHT22;28351;51.480;5.706;2022-08-03T13:44:34;41.30;85.40
42715;DHT22;28351;51.480;5.706;2022-08-03T13:47:03;40.30;84.70
42715;DHT22;28351;51.480;5.706;2022-08-03T13:49:29;40.90;84.10
42715;DHT22;28351;51.480;5.706;2022-08-03T13:51:55;41.40;84.00
42715;DHT22;28351;51.480;5.706;2022-08-03T13:54:21;42.10;82.90
42715;DHT22;28351;51.480;5.706;2022-08-03T13:56:47;42.90;82.80
42715;DHT22;28351;51.480;5.706;2022-08-03T13:59:20;43.70;82.50
42715;DHT22;28351;51.480;5.706;2022-08-03T14:01:46;43.40;81.50
42715;DHT22;28351;51.480;5.706;2022-08-03T14:04:12;43.20;81.10
42715;DHT22;28351;51.480;5.706;2022-08-03T14:06:40;40.60;81.40
42715;DHT22;28351;51.480;5.706;2022-08-03T14:09:06;38.40;83.80
42715;DHT22;28351;51.480;5.706;2022-08-03T14:11:32;37.70;85.20
42715;DHT22;28351;51.480;5.706;2022-08-03T14:13:58;38.40;85.60
42715;DHT22;28351;51.480;5.706;2022-08-03T14:16:24;39.30;84.50
42715;DHT22;28351;51.480;5.706;2022-08-03T14:18:49;40.60;84.30
42715;DHT22;28351;51.480;5.706;2022-08-03T14:21:16;40.20;83.50
42715;DHT22;28351;51.480;5.706;2022-08-03T14:23:42;39.80;83.30
42715;DHT22;28351;51.480;5.706;2022-08-03T14:26:09;40.40;83.90
42715;DHT22;28351;51.480;5.706;2022-08-03T14:28:39;41.10;83.40
42715;DHT22;28351;51.480;5.706;2022-08-03T14:31:06;42.30;82.20
42715;DHT22;28351;51.480;5.706;2022-08-03T14:33:32;42.60;80.30
42715;DHT22;28351;51.480;5.706;2022-08-03T14:35:58;43.00;79.90
42715;DHT22;28351;51.480;5.706;2022-08-03T14:38:27;42.60;79.30
42715;DHT22;28351;51.480;5.706;2022-08-03T14:40:52;42.30;81.30
42715;DHT22;28351;51.480;5.706;2022-08-03T14:43:18;42.60;81.50
42715;DHT22;28351;51.480;5.706;2022-08-03T14:45:49;42.10;80.70
42715;DHT22;28351;51.480;5.706;2022-08-03T14:48:20;41.80;80.60
42715;DHT22;28351;51.480;5.706;2022-08-03T14:50:46;42.40;81.40
42715;DHT22;28351;51.480;5.706;2022-08-03T14:53:12;42.90;81.30
42715;DHT22;28351;51.480;5.706;2022-08-03T14:55:37;43.00;79.80
42715;DHT22;28351;51.480;5.706;2022-08-03T14:58:05;42.70;80.40
42715;DHT22;28351;51.480;5.706;2022-08-03T15:00:32;43.50;80.80
42715;DHT22;28351;51.480;5.706;2022-08-03T15:02:58;43.10;79.60
42715;DHT22;28351;51.480;5.706;2022-08-03T15:05:23;41.90;78.10
42715;DHT22;28351;51.480;5.706;2022-08-03T15:07:49;41.40;80.30
42715;DHT22;28351;51.480;5.706;2022-08-03T15:10:15;41.10;78.50
42715;DHT22;28351;51.480;5.706;2022-08-03T15:12:40;41.50;78.00
42715;DHT22;28351;51.480;5.706;2022-08-03T15:15:06;41.60;79.50
42715;DHT22;28351;51.480;5.706;2022-08-03T15:17:32;41.60;78.30
42715;DHT22;28351;51.480;5.706;2022-08-03T15:19:58;42.30;77.80
42715;DHT22;28351;51.480;5.706;2022-08-03T15:22:23;42.50;77.60
42715;DHT22;28351;51.480;5.706;2022-08-03T15:24:51;42.70;77.20
42715;DHT22;28351;51.480;5.706;2022-08-03T15:27:18;42.00;77.90
42715;DHT22;28351;51.480;5.706;2022-08-03T15:29:46;42.10;78.00
42715;DHT22;28351;51.480;5.706;2022-08-03T15:32:14;41.30;77.60
42715;DHT22;28351;51.480;5.706;2022-08-03T15:34:39;41.70;78.80
42715;DHT22;28351;51.480;5.706;2022-08-03T15:37:05;41.40;77.60
42715;DHT22;28351;51.480;5.706;2022-08-03T15:39:31;40.40;77.80
42715;DHT22;28351;51.480;5.706;2022-08-03T15:41:56;40.90;78.20
42715;DHT22;28351;51.480;5.706;2022-08-03T15:44:22;40.00;78.90
42715;DHT22;28351;51.480;5.706;2022-08-03T15:46:47;39.30;79.10
42715;DHT22;28351;51.480;5.706;2022-08-03T15:49:13;38.90;79.40
42715;DHT22;28351;51.480;5.706;2022-08-03T15:51:39;39.70;80.50
42715;DHT22;28351;51.480;5.706;2022-08-03T15:54:05;40.80;79.90
42715;DHT22;28351;51.480;5.706;2022-08-03T15:56:31;40.40;77.90
42715;DHT22;28351;51.480;5.706;2022-08-03T15:58:57;39.10;78.80
42715;DHT22;28351;51.480;5.706;2022-08-03T16:01:24;37.80;79.50
42715;DHT22;28351;51.480;5.706;2022-08-03T16:03:51;36.50;80.90
42715;DHT22;28351;51.480;5.706;2022-08-03T16:06:17;37.10;81.70
42715;DHT22;28351;51.480;5.706;2022-08-03T16:08:42;37.90;82.00
42715;DHT22;28351;51.480;5.706;2022-08-03T16:11:08;38.80;80.30
42715;DHT22;28351;51.480;5.706;2022-08-03T16:13:34;39.90;79.30
42715;DHT22;28351;51.480;5.706;2022-08-03T16:15:59;40.40;77.60
42715;DHT22;28351;51.480;5.706;2022-08-03T16:18:25;40.50;77.00
42715;DHT22;28351;51.480;5.706;2022-08-03T16:20:50;40.70;76.70
42715;DHT22;28351;51.480;5.706;2022-08-03T16:23:16;40.50;76.70
42715;DHT22;28351;51.480;5.706;2022-08-03T16:25:45;40.20;76.80
42715;DHT22;28351;51.480;5.706;2022-08-03T16:28:12;39.80;77.10